Bitahochee, Arizona
Current Conditions -  °F | °C
As of 8:56 AM on Wednesday 26 Nov 2014 (Local Time) from KINW Reporting Station
Clear Clear  
Wind Chill: -4°   Ceiling: Unl
Heat Index:   Visibility: 10mi
Dew Point: -16°   Wind: 7mph
Humidity: 29%   Direction: 110°ESE
Pressure: 30.46"   Gusts: NA
Location:  35.4077°N, 110.085°W
Report Text: KINW 261556Z AUTO 11006KT 10SM CLR 00/M16 A3046 RMK AO2 SLP334 T00001161
Loading
Personal Weather Stations






























Interactive Weather Map New forecast layout! Learn more

10-Day Weather Forecast

Advertisements
Track Severe Weather on mobile